createdAt,value
2019-03-28T00:00:28.779Z,0
2019-03-28T00:03:34.676Z,0
2019-03-28T00:06:40.549Z,0
2019-03-28T00:09:47.170Z,0
2019-03-28T00:12:53.274Z,0
2019-03-28T00:16:00.099Z,0
2019-03-28T00:19:06.062Z,0
2019-03-28T00:22:14.689Z,0
2019-03-28T00:25:21.578Z,0
2019-03-28T00:28:27.445Z,0
2019-03-28T00:31:33.383Z,0
2019-03-28T00:34:40.164Z,0
2019-03-28T00:37:46.125Z,0
2019-03-28T00:40:52.285Z,0
2019-03-28T00:43:58.686Z,0
2019-03-28T00:47:04.616Z,0
2019-03-28T00:50:11.283Z,0
2019-03-28T00:53:17.260Z,0
2019-03-28T00:56:23.309Z,0
2019-03-28T00:59:29.291Z,0
2019-03-28T01:02:35.752Z,0
2019-03-28T01:05:42.227Z,0
2019-03-28T01:08:48.184Z,0
2019-03-28T01:11:54.052Z,0
2019-03-28T01:15:00.659Z,0
2019-03-28T01:18:06.676Z,0
2019-03-28T01:21:12.632Z,0
2019-03-28T01:24:18.590Z,0
2019-03-28T01:27:25.206Z,0
2019-03-28T01:30:31.179Z,0
2019-03-28T01:33:37.102Z,0
2019-03-28T01:36:43.147Z,0
2019-03-28T01:39:49.107Z,0
2019-03-28T01:42:55.067Z,0
2019-03-28T01:46:02.263Z,0
2019-03-28T01:49:08.218Z,0
2019-03-28T01:52:14.327Z,0
2019-03-28T01:55:20.205Z,0
2019-03-28T01:58:26.750Z,0
2019-03-28T02:01:33.187Z,0
2019-03-28T02:04:39.141Z,0
2019-03-28T02:07:45.101Z,0
2019-03-28T02:10:51.832Z,0
2019-03-28T02:13:57.838Z,0
2019-03-28T02:17:03.776Z,0
2019-03-28T02:20:10.283Z,0
2019-03-28T02:23:16.312Z,0
2019-03-28T02:26:22.306Z,0
2019-03-28T02:29:28.302Z,0
2019-03-28T02:32:35.754Z,0
2019-03-28T02:35:41.819Z,0
2019-03-28T02:38:47.780Z,0
2019-03-28T02:41:53.743Z,0
2019-03-28T02:44:59.739Z,0
2019-03-28T02:48:07.185Z,0
2019-03-28T02:51:13.122Z,0
2019-03-28T02:54:19.194Z,0
2019-03-28T02:57:47.805Z,0
2019-03-28T03:00:54.258Z,0
2019-03-28T03:04:00.137Z,0
2019-03-28T03:07:06.090Z,0
2019-03-28T03:10:12.149Z,0
2019-03-28T03:13:18.102Z,0
2019-03-28T03:16:25.920Z,0
2019-03-28T03:19:31.876Z,0
2019-03-28T03:22:38.156Z,0
2019-03-28T03:25:44.109Z,0
2019-03-28T03:28:50.060Z,0
2019-03-28T03:31:57.238Z,0
2019-03-28T03:35:04.903Z,0
2019-03-28T03:38:10.910Z,0
2019-03-28T03:41:16.789Z,0
2019-03-28T03:44:22.826Z,0
2019-03-28T03:47:28.705Z,0
2019-03-28T03:50:34.649Z,0
2019-03-28T03:53:40.608Z,0
2019-03-28T03:56:46.513Z,0
2019-03-28T03:59:52.613Z,0.1
2019-03-28T04:03:01.235Z,112.3
2019-03-28T04:06:08.444Z,210.2
2019-03-28T04:09:14.716Z,246.2
2019-03-28T04:12:20.764Z,253.4
2019-03-28T04:15:26.931Z,256.3
2019-03-28T04:18:32.994Z,257.8
2019-03-28T04:21:38.876Z,257.8
2019-03-28T04:24:44.923Z,259.2
2019-03-28T04:27:52.059Z,259.2
2019-03-28T04:30:58.064Z,259.2
2019-03-28T04:34:11.962Z,259.2
2019-03-28T04:37:17.838Z,262.1
2019-03-28T04:40:23.829Z,265
2019-03-28T04:43:29.893Z,265
2019-03-28T04:46:35.777Z,265
2019-03-28T04:49:41.692Z,263.5
2019-03-28T04:52:48.797Z,262.1
2019-03-28T04:55:57.616Z,262.1
2019-03-28T04:59:03.594Z,262.1
2019-03-28T05:02:09.594Z,262.1
2019-03-28T05:05:15.465Z,262.1
2019-03-28T05:08:21.661Z,262.1
2019-03-28T05:11:27.536Z,260.6
2019-03-28T05:14:33.503Z,262.1
2019-03-28T05:17:40.379Z,260.6
2019-03-28T05:20:49.578Z,260.6
2019-03-28T05:23:55.641Z,260.6
2019-03-28T05:27:01.629Z,262.1
2019-03-28T05:30:09.714Z,260.6
2019-03-28T05:33:15.794Z,259.2
2019-03-28T05:36:22.604Z,262.1
2019-03-28T05:39:28.531Z,262.1
2019-03-28T05:42:34.595Z,262.1
2019-03-28T05:45:40.616Z,257.8
2019-03-28T05:48:46.619Z,262.1
2019-03-28T05:51:52.834Z,260.6
2019-03-28T05:54:58.709Z,262.1
2019-03-28T05:58:04.804Z,247.7
2019-03-28T06:01:13.738Z,266.4
2019-03-28T06:04:19.799Z,269.3
2019-03-28T06:07:25.759Z,272.2
2019-03-28T06:10:31.717Z,286.6
2019-03-28T06:13:37.675Z,299.5
2019-03-28T06:16:43.630Z,280.8
2019-03-28T06:19:52.365Z,276.5
2019-03-28T06:22:58.317Z,277.9
2019-03-28T06:26:04.375Z,272.2
2019-03-28T06:29:26.730Z,273.6
2019-03-28T06:32:46.155Z,254.9
2019-03-28T06:35:52.208Z,273.6
2019-03-28T06:38:58.123Z,270.7
2019-03-28T06:42:04.060Z,270.7
2019-03-28T06:45:10.142Z,257.8
2019-03-28T06:48:16.522Z,266.4
2019-03-28T06:51:22.474Z,276.5
2019-03-28T06:54:28.482Z,289.4
2019-03-28T06:57:35.516Z,289.4
2019-03-28T07:00:41.716Z,286.6
2019-03-28T07:03:50.406Z,298.1
2019-03-28T07:06:56.366Z,305.3
2019-03-28T07:10:05.607Z,315.4
2019-03-28T07:13:12.276Z,306.7
2019-03-28T07:16:21.725Z,296.6
2019-03-28T07:19:27.834Z,309.6
2019-03-28T07:22:33.723Z,311
2019-03-28T07:25:39.702Z,311
2019-03-28T07:28:45.678Z,279.4
2019-03-28T07:31:51.792Z,286.6
2019-03-28T07:34:57.787Z,311
2019-03-28T07:38:04.056Z,309.6
2019-03-28T07:41:09.993Z,288
2019-03-28T07:44:16.086Z,288
2019-03-28T07:47:22.123Z,309.6
2019-03-28T07:50:28.100Z,309.6
2019-03-28T07:53:37.554Z,303.8
2019-03-28T07:56:43.414Z,303.8
2019-03-28T07:59:49.389Z,283.7
2019-03-28T08:03:10.172Z,305.3
2019-03-28T08:06:16.133Z,303.8
2019-03-28T08:09:22.197Z,263.5
2019-03-28T08:12:41.971Z,296.6
2019-03-28T08:15:48.024Z,275
2019-03-28T08:18:55.241Z,270.7
2019-03-28T08:22:01.195Z,270.7
2019-03-28T08:25:15.646Z,277.9
2019-03-28T08:28:21.685Z,276.5
2019-03-28T08:31:27.597Z,266.4
2019-03-28T08:34:34.455Z,270.7
2019-03-28T08:37:40.358Z,273.6
2019-03-28T08:40:46.373Z,276.5
2019-03-28T08:43:52.378Z,275
2019-03-28T08:46:58.286Z,272.2
2019-03-28T08:50:04.464Z,272.2
2019-03-28T08:53:10.515Z,275
2019-03-28T08:56:16.581Z,285.1
2019-03-28T08:59:22.535Z,280.8
2019-03-28T09:02:28.596Z,276.5
2019-03-28T09:05:34.510Z,276.5
2019-03-28T09:08:40.741Z,285.1
2019-03-28T09:11:46.700Z,288
2019-03-28T09:14:52.641Z,279.4
2019-03-28T09:18:02.745Z,279.4
2019-03-28T09:21:08.773Z,277.9
2019-03-28T09:24:14.724Z,276.5
2019-03-28T09:27:20.697Z,272.2
2019-03-28T09:30:26.584Z,265
2019-03-28T09:33:32.717Z,272.2
2019-03-28T09:36:38.583Z,275
2019-03-28T09:39:44.518Z,273.6
2019-03-28T09:42:50.738Z,270.7
2019-03-28T09:46:00.024Z,270.7
2019-03-28T09:49:07.523Z,267.8
2019-03-28T09:52:13.464Z,277.9
2019-03-28T09:55:21.917Z,270.7
2019-03-28T09:58:28.146Z,269.3
2019-03-28T10:01:34.133Z,280.8
2019-03-28T10:04:40.096Z,270.7
2019-03-28T10:07:45.966Z,277.9
2019-03-28T10:10:52.008Z,260.6
2019-03-28T10:13:57.976Z,285.1
2019-03-28T10:17:04.539Z,283.7
2019-03-28T10:20:11.469Z,280.8
2019-03-28T10:23:17.563Z,280.8
2019-03-28T10:26:23.543Z,286.6
2019-03-28T10:29:29.508Z,270.7
2019-03-28T10:32:35.647Z,269.3
2019-03-28T10:35:41.536Z,279.4
2019-03-28T10:38:47.498Z,280.8
2019-03-28T10:41:53.398Z,280.8
2019-03-28T10:45:00.706Z,275
2019-03-28T10:48:06.591Z,276.5
2019-03-28T10:51:12.661Z,272.2
2019-03-28T10:54:26.997Z,283.7
2019-03-28T10:57:35.116Z,279.4
2019-03-28T11:00:41.070Z,283.7
2019-03-28T11:03:47.055Z,280.8
2019-03-28T11:06:52.932Z,279.4
2019-03-28T11:09:58.971Z,283.7
2019-03-28T11:13:11.905Z,283.7
2019-03-28T11:16:18.274Z,283.7
2019-03-28T11:19:24.316Z,282.2
2019-03-28T11:22:30.256Z,282.2
2019-03-28T11:25:38.900Z,282.2
2019-03-28T11:28:45.372Z,283.7
2019-03-28T11:31:55.331Z,285.1
2019-03-28T11:35:01.508Z,283.7
2019-03-28T11:38:12.270Z,282.2
2019-03-28T11:41:18.623Z,283.7
2019-03-28T11:44:24.591Z,286.6
2019-03-28T11:47:30.528Z,265
2019-03-28T11:50:36.567Z,273.6
2019-03-28T11:53:42.439Z,272.2
2019-03-28T11:56:48.414Z,276.5
2019-03-28T11:59:57.709Z,262.1
2019-03-28T12:03:05.258Z,263.5
2019-03-28T12:06:11.974Z,260.6
2019-03-28T12:09:18.200Z,249.1
2019-03-28T12:12:24.180Z,259.2
2019-03-28T12:15:30.185Z,253.4
2019-03-28T12:18:36.192Z,256.3
2019-03-28T12:21:42.254Z,253.4
2019-03-28T12:24:48.866Z,253.4
2019-03-28T12:27:54.795Z,263.5
2019-03-28T12:31:04.343Z,263.5
2019-03-28T12:34:10.302Z,263.5
2019-03-28T12:37:16.445Z,267.8
2019-03-28T12:40:22.326Z,283.7
2019-03-28T12:43:28.462Z,285.1
2019-03-28T12:46:34.445Z,286.6
2019-03-28T12:49:40.320Z,285.1
2019-03-28T12:52:47.392Z,285.1
2019-03-28T12:55:53.362Z,276.5
2019-03-28T12:58:59.288Z,270.7
2019-03-28T13:02:05.307Z,260.6
2019-03-28T13:05:11.222Z,234.7
2019-03-28T13:08:18.430Z,237.6
2019-03-28T13:11:22.578Z,234.7
2019-03-28T13:14:31.880Z,257.8
2019-03-28T13:17:37.922Z,262.1
2019-03-28T13:20:43.904Z,267.8
2019-03-28T13:23:49.852Z,262.1
2019-03-28T13:26:55.904Z,267.8
2019-03-28T13:30:02.273Z,275
2019-03-28T13:33:11.727Z,276.5
2019-03-28T13:36:17.892Z,270.7
2019-03-28T13:39:23.759Z,266.4
2019-03-28T13:42:29.724Z,269.3
2019-03-28T13:45:35.840Z,269.3
2019-03-28T13:48:45.230Z,263.5
2019-03-28T13:51:51.886Z,253.4
2019-03-28T13:54:57.763Z,262.1
2019-03-28T13:58:03.703Z,231.8
2019-03-28T14:01:09.662Z,247.7
2019-03-28T14:04:15.538Z,273.6
2019-03-28T14:07:22.824Z,257.8
2019-03-28T14:10:28.832Z,257.8
2019-03-28T14:13:35.052Z,201.6
2019-03-28T14:16:41.130Z,236.2
2019-03-28T14:19:47.251Z,262.1
2019-03-28T14:22:54.351Z,262.1
2019-03-28T14:26:00.343Z,262.1
2019-03-28T14:29:09.537Z,262.1
2019-03-28T14:32:15.407Z,263.5
2019-03-28T14:35:21.582Z,263.5
2019-03-28T14:38:27.838Z,262.1
2019-03-28T14:41:33.778Z,260.6
2019-03-28T14:44:39.952Z,262.1
2019-03-28T14:47:45.894Z,262.1
2019-03-28T14:50:52.904Z,262.1
2019-03-28T14:53:59.284Z,263.5
2019-03-28T14:57:05.354Z,262.1
2019-03-28T15:00:11.415Z,262.1
2019-03-28T15:03:30.021Z,260.6
2019-03-28T15:06:36.017Z,260.6
2019-03-28T15:09:42.009Z,260.6
2019-03-28T15:12:48.090Z,260.6
2019-03-28T15:15:54.107Z,260.6
2019-03-28T15:19:00.249Z,260.6
2019-03-28T15:22:06.318Z,260.6
2019-03-28T15:25:12.403Z,262.1
2019-03-28T15:28:18.461Z,260.6
2019-03-28T15:31:24.924Z,260.6
2019-03-28T15:34:30.991Z,260.6
2019-03-28T15:37:36.970Z,260.6
2019-03-28T15:40:43.097Z,260.6
2019-03-28T15:43:49.063Z,260.6
2019-03-28T15:46:57.793Z,260.6
2019-03-28T15:50:03.763Z,259.2
2019-03-28T15:53:09.725Z,259.2
2019-03-28T15:56:15.785Z,259.2
2019-03-28T15:59:21.768Z,257.8
2019-03-28T16:02:27.705Z,259.2
2019-03-28T16:05:33.761Z,259.2
2019-03-28T16:08:39.769Z,259.2
2019-03-28T16:11:45.658Z,259.2
2019-03-28T16:14:51.639Z,259.2
2019-03-28T16:18:00.729Z,257.8
2019-03-28T16:21:09.716Z,259.2
2019-03-28T16:24:15.750Z,259.2
2019-03-28T16:27:21.724Z,259.2
2019-03-28T16:30:28.664Z,257.8
2019-03-28T16:33:34.581Z,257.8
2019-03-28T16:36:40.525Z,256.3
2019-03-28T16:39:49.605Z,257.8
2019-03-28T16:42:58.476Z,256.3
2019-03-28T16:46:07.467Z,256.3
2019-03-28T16:49:13.578Z,256.3
2019-03-28T16:52:20.519Z,254.9
2019-03-28T16:55:30.677Z,256.3
2019-03-28T16:58:36.682Z,256.3
2019-03-28T17:01:42.754Z,256.3
2019-03-28T17:04:49.659Z,254.9
2019-03-28T17:07:55.904Z,256.3
2019-03-28T17:11:01.862Z,254.9
2019-03-28T17:14:07.818Z,256.3
2019-03-28T17:17:13.779Z,254.9
2019-03-28T17:20:19.713Z,254.9
2019-03-28T17:23:25.698Z,254.9
2019-03-28T17:26:32.557Z,254.9
2019-03-28T17:29:38.537Z,254.9
2019-03-28T17:32:44.498Z,254.9
2019-03-28T17:35:50.487Z,254.9
2019-03-28T17:38:56.623Z,256.3
2019-03-28T17:42:05.841Z,254.9
2019-03-28T17:45:12.305Z,254.9
2019-03-28T17:48:18.345Z,256.3
2019-03-28T17:51:24.220Z,256.3
2019-03-28T17:54:30.206Z,256.3
2019-03-28T17:57:36.168Z,256.3
2019-03-28T18:00:43.343Z,256.3
2019-03-28T18:03:52.087Z,256.3
2019-03-28T18:06:59.120Z,256.3
2019-03-28T18:10:06.771Z,257.8
2019-03-28T18:13:12.708Z,256.3
2019-03-28T18:16:18.699Z,257.8
2019-03-28T18:19:24.650Z,257.8
2019-03-28T18:22:30.608Z,256.3
2019-03-28T18:25:36.985Z,256.3
2019-03-28T18:28:42.942Z,256.3
2019-03-28T18:31:55.311Z,256.3
2019-03-28T18:35:10.336Z,256.3
2019-03-28T18:38:16.395Z,257.8
2019-03-28T18:41:22.267Z,257.8
2019-03-28T18:44:28.309Z,257.8
2019-03-28T18:47:34.270Z,257.8
2019-03-28T18:50:43.753Z,259.2
2019-03-28T18:53:49.614Z,257.8
2019-03-28T18:56:55.629Z,259.2
2019-03-28T19:00:01.662Z,257.8
2019-03-28T19:03:07.619Z,257.8
2019-03-28T19:06:18.724Z,257.8
2019-03-28T19:09:24.702Z,257.8
2019-03-28T19:12:30.645Z,1.7
2019-03-28T19:15:36.555Z,1.7
2019-03-28T19:18:42.565Z,1.8
2019-03-28T19:21:48.655Z,1.7
2019-03-28T19:24:54.590Z,1.7
2019-03-28T19:28:00.656Z,1.7
2019-03-28T19:31:07.844Z,1.7
2019-03-28T19:34:13.810Z,1.7
2019-03-28T19:37:22.678Z,1.7
2019-03-28T19:40:30.179Z,1.7
2019-03-28T19:43:37.014Z,1.7
2019-03-28T19:46:42.974Z,1.8
2019-03-28T19:49:49.925Z,1.7
2019-03-28T19:52:55.906Z,1.8
2019-03-28T19:56:01.921Z,1.8
2019-03-28T19:59:07.789Z,1.8
2019-03-28T20:02:17.219Z,1.7
2019-03-28T20:05:23.130Z,1.8
2019-03-28T20:08:29.499Z,1.8
2019-03-28T20:11:35.433Z,1.8
2019-03-28T20:14:42.938Z,1.8
2019-03-28T20:17:50.969Z,1.7
2019-03-28T20:20:58.767Z,1.7
2019-03-28T20:24:04.830Z,1.7
2019-03-28T20:27:10.992Z,1.7
2019-03-28T20:30:18.968Z,1.7
2019-03-28T20:33:28.029Z,1.8
2019-03-28T20:36:46.382Z,1.7
2019-03-28T20:39:52.346Z,1.7
2019-03-28T20:42:58.318Z,1.7
2019-03-28T20:46:06.124Z,1.7
2019-03-28T20:49:12.175Z,1.7
2019-03-28T20:52:19.778Z,1.7
2019-03-28T20:55:26.838Z,1.7
2019-03-28T20:58:32.811Z,1.7
2019-03-28T21:01:38.691Z,1.7
2019-03-28T21:04:48.026Z,1.7
2019-03-28T21:07:56.688Z,1.7
2019-03-28T21:11:02.822Z,1.7
2019-03-28T21:14:08.862Z,1.7
2019-03-28T21:17:14.739Z,1.7
2019-03-28T21:20:20.801Z,1.7
2019-03-28T21:23:26.846Z,1.7
2019-03-28T21:26:32.722Z,1.7
2019-03-28T21:29:53.309Z,221.8
2019-03-28T21:33:00.795Z,104.4
2019-03-28T21:36:07.785Z,0
2019-03-28T21:39:13.728Z,0
2019-03-28T21:43:20.634Z,0
2019-03-28T21:46:26.696Z,0
2019-03-28T21:49:32.703Z,0
2019-03-28T21:52:40.274Z,0
2019-03-28T21:55:59.986Z,0
2019-03-28T21:59:05.867Z,0
2019-03-28T22:02:11.850Z,0
2019-03-28T22:05:17.815Z,0
2019-03-28T22:08:23.690Z,0
2019-03-28T22:11:29.628Z,0
2019-03-28T22:14:35.540Z,0
2019-03-28T22:17:42.899Z,0
2019-03-28T22:20:48.760Z,0
2019-03-28T22:23:54.696Z,0
2019-03-28T22:27:03.406Z,0
2019-03-28T22:30:09.280Z,0
2019-03-28T22:33:17.694Z,0
2019-03-28T22:36:23.669Z,0
2019-03-28T22:39:29.627Z,0
2019-03-28T22:42:35.590Z,0
2019-03-28T22:45:41.648Z,0
2019-03-28T22:48:48.624Z,0
2019-03-28T22:51:54.600Z,0
2019-03-28T22:55:00.555Z,0
2019-03-28T22:58:06.747Z,0
2019-03-28T23:01:14.101Z,0
2019-03-28T23:04:20.063Z,0
2019-03-28T23:07:26.034Z,0
2019-03-28T23:10:31.923Z,0
2019-03-28T23:13:37.852Z,0
2019-03-28T23:16:43.863Z,0
2019-03-28T23:19:49.867Z,0
2019-03-28T23:22:55.932Z,0
2019-03-28T23:26:01.892Z,0
2019-03-28T23:29:07.931Z,0
2019-03-28T23:32:15.938Z,0
2019-03-28T23:35:21.920Z,0
2019-03-28T23:38:27.878Z,0
2019-03-28T23:41:33.840Z,0
2019-03-28T23:44:39.708Z,0
2019-03-28T23:47:48.416Z,0
2019-03-28T23:50:54.377Z,0
2019-03-28T23:54:01.491Z,0
2019-03-28T23:57:07.424Z,0
